createdAt,value
2019-03-18T00:02:22.092Z,66.40
2019-03-18T00:04:52.886Z,66.30
2019-03-18T00:07:23.741Z,66.30
2019-03-18T00:09:54.882Z,66.20
2019-03-18T00:12:25.551Z,65.90
2019-03-18T00:15:01.344Z,65.90
2019-03-18T00:17:27.945Z,66.00
2019-03-18T00:19:58.462Z,65.80
2019-03-18T00:22:29.038Z,65.60
2019-03-18T00:24:59.822Z,65.60
2019-03-18T00:27:30.665Z,66.20
2019-03-18T00:30:01.315Z,65.80
2019-03-18T00:32:31.869Z,66.00
2019-03-18T00:35:02.513Z,66.00
2019-03-18T00:37:33.202Z,66.20
2019-03-18T00:40:03.931Z,65.80
2019-03-18T00:42:34.718Z,65.40
2019-03-18T00:45:14.817Z,66.20
2019-03-18T00:47:38.420Z,66.20
2019-03-18T00:50:11.386Z,65.30
2019-03-18T00:52:42.122Z,65.60
2019-03-18T00:55:12.707Z,65.90
2019-03-18T00:57:43.418Z,65.50
2019-03-18T01:00:16.611Z,65.60
2019-03-18T01:02:49.542Z,65.70
2019-03-18T01:05:19.560Z,65.30
2019-03-18T01:07:50.355Z,65.30
2019-03-18T01:10:23.914Z,65.60
2019-03-18T01:12:54.581Z,65.00
2019-03-18T01:15:28.603Z,65.20
2019-03-18T01:18:09.973Z,64.80
2019-03-18T01:20:45.615Z,65.50
2019-03-18T01:23:15.240Z,65.10
2019-03-18T01:25:45.927Z,64.70
2019-03-18T01:28:17.108Z,64.80
2019-03-18T01:30:49.117Z,65.10
2019-03-18T01:33:20.147Z,64.30
2019-03-18T01:35:50.733Z,64.20
2019-03-18T01:38:21.371Z,64.30
2019-03-18T01:40:52.179Z,64.20
2019-03-18T01:43:23.088Z,64.20
2019-03-18T01:45:53.923Z,64.00
2019-03-18T01:48:25.110Z,63.50
2019-03-18T01:50:56.042Z,63.30
2019-03-18T01:53:26.906Z,63.20
2019-03-18T01:55:57.702Z,63.50
2019-03-18T01:58:28.651Z,63.20
2019-03-18T02:00:59.329Z,63.00
2019-03-18T02:03:31.302Z,62.90
2019-03-18T02:06:16.657Z,62.60
2019-03-18T02:08:48.624Z,62.10
2019-03-18T02:11:21.534Z,62.40
2019-03-18T02:13:52.395Z,62.40
2019-03-18T02:16:23.063Z,62.10
2019-03-18T02:18:53.740Z,61.50
2019-03-18T02:21:24.527Z,61.50
2019-03-18T02:23:55.310Z,61.20
2019-03-18T02:26:26.052Z,61.00
2019-03-18T02:28:56.978Z,61.00
2019-03-18T02:31:27.944Z,60.90
2019-03-18T02:34:00.231Z,60.60
2019-03-18T02:36:30.781Z,60.40
2019-03-18T02:39:01.501Z,60.00
2019-03-18T02:41:33.319Z,59.90
2019-03-18T02:44:04.426Z,59.70
2019-03-18T02:46:35.304Z,59.60
2019-03-18T02:49:05.854Z,59.50
2019-03-18T02:51:36.739Z,59.30
2019-03-18T02:54:07.608Z,59.20
2019-03-18T02:56:38.344Z,58.90
2019-03-18T02:59:09.319Z,58.70
2019-03-18T03:01:40.700Z,58.60
2019-03-18T03:04:15.670Z,58.70
2019-03-18T03:06:47.086Z,57.90
2019-03-18T03:09:21.518Z,57.60
2019-03-18T03:11:54.682Z,57.40
2019-03-18T03:14:26.910Z,57.70
2019-03-18T03:16:59.314Z,57.70
2019-03-18T03:19:33.840Z,57.70
2019-03-18T03:22:04.567Z,57.50
2019-03-18T03:24:50.452Z,56.80
2019-03-18T03:27:21.490Z,56.50
2019-03-18T03:29:52.402Z,55.90
2019-03-18T03:32:23.989Z,56.30
2019-03-18T03:34:56.937Z,56.40
2019-03-18T03:37:40.660Z,56.60
2019-03-18T03:40:13.726Z,56.50
2019-03-18T03:42:44.812Z,56.30
2019-03-18T03:45:16.380Z,56.00
2019-03-18T03:47:48.795Z,56.10
2019-03-18T03:50:19.966Z,54.80
2019-03-18T03:52:50.938Z,55.00
2019-03-18T03:55:22.786Z,55.20
2019-03-18T03:57:53.468Z,54.90
2019-03-18T04:00:24.171Z,55.30
2019-03-18T04:02:54.811Z,55.30
2019-03-18T04:05:25.584Z,55.50
2019-03-18T04:08:04.173Z,54.80
2019-03-18T04:10:48.419Z,54.20
2019-03-18T04:13:19.421Z,54.20
2019-03-18T04:15:50.105Z,53.50
2019-03-18T04:18:21.513Z,53.60
2019-03-18T04:20:52.624Z,52.90
2019-03-18T04:23:23.515Z,53.00
2019-03-18T04:25:54.349Z,54.20
2019-03-18T04:28:26.272Z,52.80
2019-03-18T04:30:57.101Z,51.80
2019-03-18T04:33:27.897Z,52.30
2019-03-18T04:35:58.462Z,52.50
2019-03-18T04:38:29.223Z,52.70
2019-03-18T04:41:01.317Z,52.80
2019-03-18T04:43:32.644Z,51.90
2019-03-18T04:46:07.074Z,51.70
2019-03-18T04:48:37.794Z,52.10
2019-03-18T04:51:08.541Z,51.50
2019-03-18T04:53:39.229Z,51.70
2019-03-18T04:56:11.369Z,51.80
2019-03-18T04:58:41.903Z,50.40
2019-03-18T05:01:12.644Z,51.20
2019-03-18T05:03:43.187Z,51.10
2019-03-18T05:06:14.650Z,51.70
2019-03-18T05:08:48.280Z,50.70
2019-03-18T05:11:19.625Z,50.10
2019-03-18T05:13:50.693Z,50.50
2019-03-18T05:16:22.953Z,50.50
2019-03-18T05:18:53.553Z,50.60
2019-03-18T05:21:24.514Z,49.10
2019-03-18T05:23:55.607Z,49.80
2019-03-18T05:26:26.303Z,50.40
2019-03-18T05:28:57.206Z,49.70
2019-03-18T05:31:28.232Z,50.60
2019-03-18T05:33:59.768Z,50.20
2019-03-18T05:36:30.421Z,50.10
2019-03-18T05:39:00.991Z,49.80
2019-03-18T05:41:32.038Z,50.60
2019-03-18T05:44:02.885Z,49.90
2019-03-18T05:46:33.425Z,49.90
2019-03-18T05:49:04.104Z,49.80
2019-03-18T05:51:35.479Z,49.30
2019-03-18T05:54:06.395Z,49.30
2019-03-18T05:56:37.571Z,48.60
2019-03-18T05:59:08.286Z,49.30
2019-03-18T06:01:39.185Z,47.70
2019-03-18T06:04:13.532Z,48.20
2019-03-18T06:06:44.566Z,48.10
2019-03-18T06:09:16.742Z,48.40
2019-03-18T06:11:50.342Z,48.20
2019-03-18T06:14:22.429Z,48.70
2019-03-18T06:16:53.437Z,48.60
2019-03-18T06:19:24.714Z,47.60
2019-03-18T06:21:55.559Z,47.70
2019-03-18T06:24:28.618Z,48.30
2019-03-18T06:27:01.733Z,48.10
2019-03-18T06:29:32.970Z,47.50
2019-03-18T06:32:03.827Z,47.70
2019-03-18T06:34:34.451Z,47.50
2019-03-18T06:37:05.723Z,46.00
2019-03-18T06:39:36.815Z,45.70
2019-03-18T06:42:09.664Z,46.30
2019-03-18T06:44:40.292Z,46.40
2019-03-18T06:47:11.240Z,47.40
2019-03-18T06:49:43.773Z,44.50
2019-03-18T06:52:14.909Z,44.40
2019-03-18T06:54:45.401Z,44.30
2019-03-18T06:57:16.544Z,45.20
2019-03-18T06:59:47.918Z,45.60
2019-03-18T07:02:18.600Z,45.70
2019-03-18T07:04:50.462Z,45.00
2019-03-18T07:07:21.069Z,45.70
2019-03-18T07:09:51.981Z,45.50
2019-03-18T07:12:22.799Z,46.80
2019-03-18T07:14:54.930Z,46.60
2019-03-18T07:17:26.102Z,46.40
2019-03-18T07:19:57.410Z,45.40
2019-03-18T07:22:28.058Z,45.00
2019-03-18T07:24:58.737Z,43.00
2019-03-18T07:27:30.375Z,45.10
2019-03-18T07:30:01.694Z,45.10
2019-03-18T07:32:32.382Z,43.30
2019-03-18T07:35:04.524Z,43.50
2019-03-18T07:37:42.716Z,43.80
2019-03-18T07:40:15.502Z,44.60
2019-03-18T07:42:46.251Z,44.60
2019-03-18T07:45:22.809Z,44.20
2019-03-18T07:48:02.787Z,43.70
2019-03-18T07:50:42.709Z,43.70
2019-03-18T07:53:14.099Z,44.10
2019-03-18T07:55:51.190Z,44.30
2019-03-18T07:58:22.556Z,44.50
2019-03-18T08:01:03.575Z,43.30
2019-03-18T08:03:36.594Z,44.90
2019-03-18T08:06:10.534Z,44.00
2019-03-18T08:08:41.882Z,43.70
2019-03-18T08:11:13.360Z,43.10
2019-03-18T08:13:44.921Z,43.50
2019-03-18T08:16:28.953Z,43.50
2019-03-18T08:19:04.102Z,42.90
2019-03-18T08:21:36.878Z,42.80
2019-03-18T08:24:34.885Z,44.20
2019-03-18T08:27:06.302Z,43.50
2019-03-18T08:29:37.498Z,43.70
2019-03-18T08:32:11.653Z,43.20
2019-03-18T08:34:48.416Z,43.60
2019-03-18T08:37:38.669Z,43.60
2019-03-18T08:40:15.527Z,43.60
2019-03-18T08:42:50.637Z,43.20
2019-03-18T08:45:40.504Z,42.80
2019-03-18T08:48:14.850Z,42.70
2019-03-18T08:51:14.942Z,42.40
2019-03-18T08:53:47.640Z,42.40
2019-03-18T08:56:19.259Z,43.10
2019-03-18T08:58:50.173Z,43.60
2019-03-18T09:01:21.151Z,43.10
2019-03-18T09:03:52.209Z,42.50
2019-03-18T09:06:24.043Z,42.40
2019-03-18T09:08:54.739Z,43.00
2019-03-18T09:11:27.780Z,42.80
2019-03-18T09:13:58.490Z,41.30
2019-03-18T09:16:29.470Z,42.10
2019-03-18T09:19:08.517Z,43.10
2019-03-18T09:21:32.180Z,43.00
2019-03-18T09:24:02.960Z,43.10
2019-03-18T09:26:33.659Z,43.00
2019-03-18T09:29:04.768Z,42.70
2019-03-18T09:31:37.164Z,42.40
2019-03-18T09:34:08.006Z,42.10
2019-03-18T09:36:38.812Z,41.80
2019-03-18T09:39:11.264Z,42.00
2019-03-18T09:41:43.037Z,42.50
2019-03-18T09:44:14.942Z,42.40
2019-03-18T09:46:46.489Z,43.10
2019-03-18T09:49:21.890Z,40.80
2019-03-18T09:51:50.536Z,42.00
2019-03-18T09:54:21.262Z,42.40
2019-03-18T09:56:52.968Z,42.50
2019-03-18T09:59:25.431Z,42.50
2019-03-18T10:01:56.836Z,42.40
2019-03-18T10:04:27.727Z,42.60
2019-03-18T10:06:58.596Z,42.50
2019-03-18T10:09:29.919Z,42.70
2019-03-18T10:12:00.695Z,42.80
2019-03-18T10:14:31.455Z,42.80
2019-03-18T10:17:09.519Z,42.90
2019-03-18T10:19:34.044Z,43.10
2019-03-18T10:22:04.897Z,43.20
2019-03-18T10:24:35.615Z,43.20
2019-03-18T10:27:06.194Z,43.30
2019-03-18T10:29:36.878Z,43.40
2019-03-18T10:32:07.927Z,43.60
2019-03-18T10:34:38.536Z,43.60
2019-03-18T10:37:09.169Z,43.60
2019-03-18T10:39:39.854Z,44.10
2019-03-18T10:42:10.541Z,43.90
2019-03-18T10:44:41.232Z,44.00
2019-03-18T10:47:11.904Z,44.20
2019-03-18T10:49:46.305Z,44.30
2019-03-18T10:52:14.539Z,44.40
2019-03-18T10:54:45.372Z,44.30
2019-03-18T10:57:16.692Z,44.10
2019-03-18T10:59:47.213Z,44.40
2019-03-18T11:02:17.896Z,44.00
2019-03-18T11:04:48.595Z,44.40
2019-03-18T11:07:19.216Z,44.50
2019-03-18T11:09:49.920Z,44.50
2019-03-18T11:12:20.626Z,45.10
2019-03-18T11:14:51.291Z,46.10
2019-03-18T11:17:21.717Z,45.50
2019-03-18T11:19:58.450Z,45.80
2019-03-18T11:22:24.732Z,46.00
2019-03-18T11:24:55.347Z,46.20
2019-03-18T11:27:25.897Z,46.40
2019-03-18T11:29:56.537Z,46.70
2019-03-18T11:32:27.118Z,46.80
2019-03-18T11:34:57.908Z,46.90
2019-03-18T11:37:28.441Z,47.20
2019-03-18T11:39:59.110Z,47.10
2019-03-18T11:42:29.762Z,48.30
2019-03-18T11:45:00.552Z,47.60
2019-03-18T11:47:31.235Z,47.60
2019-03-18T11:50:11.012Z,47.70
2019-03-18T11:52:34.038Z,47.80
2019-03-18T11:55:05.042Z,47.80
2019-03-18T11:57:36.096Z,47.80
2019-03-18T12:00:09.340Z,47.70
2019-03-18T12:02:40.108Z,47.60
2019-03-18T12:05:13.507Z,47.50
2019-03-18T12:07:44.038Z,47.50
2019-03-18T12:10:16.927Z,47.50
2019-03-18T12:12:47.460Z,47.50
2019-03-18T12:15:21.593Z,47.50
2019-03-18T12:17:51.496Z,47.60
2019-03-18T12:20:24.916Z,47.70
2019-03-18T12:22:54.008Z,47.60
2019-03-18T12:25:25.262Z,47.70
2019-03-18T12:27:55.834Z,48.00
2019-03-18T12:30:27.226Z,47.90
2019-03-18T12:32:57.949Z,48.10
2019-03-18T12:35:28.637Z,48.50
2019-03-18T12:37:59.305Z,49.20
2019-03-18T12:40:30.762Z,49.70
2019-03-18T12:43:01.581Z,49.50
2019-03-18T12:45:32.147Z,49.80
2019-03-18T12:48:02.994Z,49.90
2019-03-18T12:50:49.048Z,49.90
2019-03-18T12:53:05.873Z,50.30
2019-03-18T12:55:36.635Z,50.40
2019-03-18T12:58:07.391Z,50.30
2019-03-18T13:00:38.287Z,50.40
2019-03-18T13:03:09.075Z,50.60
2019-03-18T13:05:39.729Z,51.50
2019-03-18T13:08:10.434Z,51.30
2019-03-18T13:10:41.284Z,51.10
2019-03-18T13:13:11.985Z,51.00
2019-03-18T13:15:42.846Z,51.30
2019-03-18T13:18:13.582Z,51.20
2019-03-18T13:20:44.182Z,51.20
2019-03-18T13:23:15.882Z,51.00
2019-03-18T13:25:46.486Z,51.10
2019-03-18T13:28:17.220Z,51.00
2019-03-18T13:30:47.916Z,51.00
2019-03-18T13:33:18.615Z,50.90
2019-03-18T13:35:49.415Z,51.00
2019-03-18T13:38:20.089Z,50.90
2019-03-18T13:40:50.942Z,51.10
2019-03-18T13:43:21.692Z,51.20
2019-03-18T13:45:55.725Z,51.10
2019-03-18T13:48:24.429Z,51.10
2019-03-18T13:50:54.955Z,51.20
2019-03-18T13:53:26.360Z,51.20
2019-03-18T13:55:57.073Z,51.40
2019-03-18T13:58:27.832Z,51.30
2019-03-18T14:00:58.403Z,51.50
2019-03-18T14:03:31.626Z,51.50
2019-03-18T14:06:02.425Z,51.50
2019-03-18T14:08:33.207Z,51.50
2019-03-18T14:11:04.093Z,51.50
2019-03-18T14:13:34.751Z,51.60
2019-03-18T14:16:05.253Z,51.80
2019-03-18T14:18:35.951Z,52.10
2019-03-18T14:21:06.294Z,52.30
2019-03-18T14:23:37.117Z,52.70
2019-03-18T14:26:07.804Z,52.40
2019-03-18T14:28:38.432Z,52.40
2019-03-18T14:31:09.656Z,52.50
2019-03-18T14:33:40.325Z,52.50
2019-03-18T14:36:11.060Z,52.70
2019-03-18T14:38:41.487Z,52.60
2019-03-18T14:41:12.215Z,52.80
2019-03-18T14:43:42.725Z,53.30
2019-03-18T14:46:13.492Z,53.30
2019-03-18T14:48:44.072Z,53.30
2019-03-18T14:51:14.607Z,53.80
2019-03-18T14:53:45.394Z,53.90
2019-03-18T14:56:16.194Z,54.00
2019-03-18T14:58:46.751Z,54.30
2019-03-18T15:01:17.327Z,53.90
2019-03-18T15:03:47.884Z,53.80
2019-03-18T15:06:18.679Z,53.50
2019-03-18T15:08:49.372Z,53.60
2019-03-18T15:11:20.239Z,53.70
2019-03-18T15:13:51.507Z,53.60
2019-03-18T15:16:22.185Z,53.50
2019-03-18T15:18:52.933Z,53.30
2019-03-18T15:21:23.444Z,53.30
2019-03-18T15:23:54.253Z,53.50
2019-03-18T15:26:25.298Z,53.20
2019-03-18T15:28:56.956Z,53.20
2019-03-18T15:31:27.665Z,53.10
2019-03-18T15:33:58.385Z,53.20
2019-03-18T15:36:28.959Z,53.30
2019-03-18T15:38:59.726Z,53.30
2019-03-18T15:41:30.348Z,53.30
2019-03-18T15:44:00.916Z,53.20
2019-03-18T15:46:31.665Z,53.30
2019-03-18T15:49:02.377Z,53.20
2019-03-18T15:51:33.331Z,53.20
2019-03-18T15:54:03.921Z,53.30
2019-03-18T15:56:34.546Z,53.50
2019-03-18T15:59:05.525Z,53.50
2019-03-18T16:01:36.293Z,53.50
2019-03-18T16:04:07.003Z,53.50
2019-03-18T16:06:37.568Z,53.60
2019-03-18T16:09:08.604Z,53.90
2019-03-18T16:11:39.468Z,53.70
2019-03-18T16:14:09.850Z,53.90
2019-03-18T16:16:40.429Z,53.90
2019-03-18T16:19:11.180Z,53.90
2019-03-18T16:21:41.831Z,53.90
2019-03-18T16:24:12.746Z,54.20
2019-03-18T16:26:43.553Z,54.10
2019-03-18T16:29:14.593Z,54.10
2019-03-18T16:31:45.602Z,54.10
2019-03-18T16:34:16.122Z,54.10
2019-03-18T16:36:46.757Z,54.20
2019-03-18T16:39:17.675Z,54.20
2019-03-18T16:41:48.401Z,54.10
2019-03-18T16:44:19.172Z,54.10
2019-03-18T16:46:50.162Z,54.20
2019-03-18T16:49:20.922Z,54.20
2019-03-18T16:51:53.341Z,55.00
2019-03-18T16:54:23.725Z,54.80
2019-03-18T16:56:54.435Z,54.70
2019-03-18T16:59:25.090Z,54.70
2019-03-18T17:01:55.716Z,54.60
2019-03-18T17:04:26.357Z,55.00
2019-03-18T17:06:56.935Z,55.60
2019-03-18T17:09:27.613Z,55.70
2019-03-18T17:11:58.338Z,55.70
2019-03-18T17:14:29.040Z,55.70
2019-03-18T17:16:59.891Z,56.40
2019-03-18T17:19:30.857Z,56.20
2019-03-18T17:22:01.458Z,56.30
2019-03-18T17:24:32.266Z,56.50
2019-03-18T17:27:03.255Z,56.10
2019-03-18T17:29:33.865Z,56.30
2019-03-18T17:32:04.555Z,56.50
2019-03-18T17:34:37.962Z,56.50
2019-03-18T17:37:08.521Z,56.60
2019-03-18T17:39:41.715Z,56.40
2019-03-18T17:42:12.497Z,56.30
2019-03-18T17:44:43.183Z,56.30
2019-03-18T17:47:13.734Z,56.30
2019-03-18T17:49:44.400Z,56.40
2019-03-18T17:52:16.446Z,56.10
2019-03-18T17:54:47.019Z,56.10
2019-03-18T17:57:17.656Z,56.10
2019-03-18T17:59:48.422Z,56.40
2019-03-18T18:02:19.207Z,56.30
2019-03-18T18:05:02.158Z,56.00
2019-03-18T18:07:21.855Z,55.80
2019-03-18T18:09:52.487Z,56.00
2019-03-18T18:12:23.312Z,56.20
2019-03-18T18:14:53.885Z,56.70
2019-03-18T18:17:24.594Z,57.10
2019-03-18T18:19:55.306Z,57.00
2019-03-18T18:22:27.298Z,56.90
2019-03-18T18:24:57.880Z,57.10
2019-03-18T18:27:28.636Z,57.00
2019-03-18T18:29:59.263Z,56.90
2019-03-18T18:32:29.702Z,56.90
2019-03-18T18:35:00.518Z,57.00
2019-03-18T18:37:30.939Z,57.20
2019-03-18T18:40:01.610Z,57.10
2019-03-18T18:42:33.292Z,57.20
2019-03-18T18:45:04.208Z,57.70
2019-03-18T18:47:34.991Z,57.80
2019-03-18T18:50:06.781Z,58.00
2019-03-18T18:52:37.376Z,57.70
2019-03-18T18:55:10.385Z,57.50
2019-03-18T18:57:41.139Z,58.10
2019-03-18T19:00:14.425Z,58.20
2019-03-18T19:02:45.156Z,60.00
2019-03-18T19:05:18.748Z,59.50
2019-03-18T19:07:49.380Z,59.10
2019-03-18T19:10:21.548Z,58.90
2019-03-18T19:12:52.050Z,58.50
2019-03-18T19:15:24.564Z,58.90
2019-03-18T19:17:55.273Z,60.10
2019-03-18T19:20:25.893Z,60.00
2019-03-18T19:22:56.728Z,59.70
2019-03-18T19:25:27.377Z,59.90
2019-03-18T19:27:58.107Z,60.10
2019-03-18T19:30:28.853Z,59.70
2019-03-18T19:32:59.385Z,59.90
2019-03-18T19:35:30.613Z,59.70
2019-03-18T19:38:01.410Z,59.50
2019-03-18T19:40:32.011Z,59.10
2019-03-18T19:43:02.835Z,59.00
2019-03-18T19:45:33.655Z,59.40
2019-03-18T19:48:04.252Z,60.00
2019-03-18T19:50:35.167Z,59.70
2019-03-18T19:53:05.898Z,60.30
2019-03-18T19:55:36.544Z,61.10
2019-03-18T19:58:07.124Z,60.10
2019-03-18T20:00:37.752Z,60.40
2019-03-18T20:03:08.439Z,61.00
2019-03-18T20:05:39.384Z,60.50
2019-03-18T20:08:09.889Z,60.90
2019-03-18T20:10:40.566Z,61.10
2019-03-18T20:13:11.055Z,61.10
2019-03-18T20:15:41.801Z,60.80
2019-03-18T20:18:12.602Z,60.30
2019-03-18T20:20:43.358Z,60.20
2019-03-18T20:23:13.998Z,60.10
2019-03-18T20:25:44.544Z,60.00
2019-03-18T20:28:14.988Z,60.00
2019-03-18T20:30:45.781Z,60.30
2019-03-18T20:33:16.275Z,60.60
2019-03-18T20:35:46.884Z,60.50
2019-03-18T20:38:17.945Z,61.80
2019-03-18T20:40:48.625Z,61.50
2019-03-18T20:43:19.174Z,62.30
2019-03-18T20:45:49.896Z,62.00
2019-03-18T20:48:20.664Z,62.00
2019-03-18T20:50:51.431Z,61.60
2019-03-18T20:53:22.084Z,61.90
2019-03-18T20:55:52.832Z,62.20
2019-03-18T20:58:23.685Z,62.40
2019-03-18T21:00:54.359Z,61.70
2019-03-18T21:03:25.046Z,61.80
2019-03-18T21:05:55.820Z,62.20
2019-03-18T21:08:26.350Z,62.20
2019-03-18T21:10:57.074Z,61.40
2019-03-18T21:13:29.067Z,61.40
2019-03-18T21:15:59.662Z,61.30
2019-03-18T21:18:30.329Z,62.60
2019-03-18T21:21:00.989Z,62.70
2019-03-18T21:23:31.591Z,61.80
2019-03-18T21:26:02.454Z,62.40
2019-03-18T21:28:40.684Z,62.10
2019-03-18T23:04:35.154Z,67.60
2019-03-18T23:07:05.930Z,67.60
2019-03-18T23:09:36.627Z,67.80
2019-03-18T23:12:07.263Z,67.50
2019-03-18T23:14:38.054Z,68.60
2019-03-18T23:17:08.677Z,67.80
2019-03-18T23:19:39.388Z,68.20
2019-03-18T23:22:10.389Z,67.40
2019-03-18T23:24:43.265Z,67.10
2019-03-18T23:27:13.014Z,66.90
2019-03-18T23:29:43.703Z,67.20
2019-03-18T23:32:14.225Z,66.90
2019-03-18T23:34:44.887Z,66.90
2019-03-18T23:37:15.595Z,67.90
2019-03-18T23:39:46.355Z,67.50
2019-03-18T23:42:17.476Z,67.50
2019-03-18T23:44:48.366Z,67.10
2019-03-18T23:47:19.174Z,66.90
2019-03-18T23:49:50.262Z,66.80
2019-03-18T23:52:21.059Z,66.50
2019-03-18T23:54:51.852Z,66.90
2019-03-18T23:57:22.422Z,66.70
2019-03-18T23:59:53.035Z,66.80
